PWSweather.com
Personal Weather Stations
Station Observations
KTXPLANO60
Highlands Of Russell Park, Plano, TX 75025

Highlands Of Russell ParkPlano, TX 75025

Lat: 33.10431671, Lon: -96.75176239

Elevation: 761

Station Type: Davis Wireless VP2 Plus

http://www.planoweather.com

Latest ConditionsUpdated 3:00:01 PM CST Sunday, Jan 19, 2020
Currently Today's Max Today's Min Today's Average
Temperature 51.5°F10.8°C 52.3°F11.3°C 33.3°F0.7°C 40.8°F4.9°C
Dew Point 24.0°F-4.4°C 25.8°F-3.4°C 18.8°F-7.3°C 23.3°F-4.8°C
Winds Calm Calm 5.8 mph -9.3 kmh - - 0.6 mph 1.0 kmh
Wind Gusts -- 10.4 mph16.7 kmh - -
Humidity 34% 67% 32% 51%
Pressure 30.48 in1032.2 mb 30.58 in1035.6 mb 30.44 in1030.8 mb -
Hour Temp Dew Point Humidity Winds Wind Gusts Pressure Precip Precip Rate Daily Precip Total
03:00 PM 51.5°F10.8°C 24.0°F-4.4°C 34% Calm Calm -- 30.48 in1032.2 mb - 0.00 in0.0 mm 0.00 in0.0 mm
02:50 PM 52.3°F11.3°C 24.7°F-4.1°C 34% 5.8 mph NNW9.3 kmh NNW 6.9 mph11.1 kmh 30.48 in1032.2 mb - 0.00 in0.0 mm 0.00 in0.0 mm
02:40 PM 51.4°F10.8°C 23.9°F-4.5°C 34% 4.6 mph NW7.4 kmh NW 6.9 mph11.1 kmh 30.48 in1032.2 mb - 0.00 in0.0 mm 0.00 in0.0 mm
02:30 PM 51.0°F10.6°C 24.3°F-4.3°C 35% 1.2 mph N1.9 kmh N 10.4 mph16.7 kmh 30.49 in1032.5 mb - 0.00 in0.0 mm 0.00 in0.0 mm
02:20 PM 51.3°F10.7°C 24.5°F-4.2°C 35% 2.3 mph NW3.7 kmh NW 8.1 mph13.0 kmh 30.49 in1032.5 mb - 0.00 in0.0 mm 0.00 in0.0 mm
02:10 PM 51.2°F10.7°C 24.5°F-4.2°C 35% 2.3 mph NNE3.7 kmh NNE 1.2 mph1.9 kmh 30.49 in1032.5 mb - 0.00 in0.0 mm 0.00 in0.0 mm
02:00 PM 51.1°F10.6°C 24.4°F-4.2°C 35% 1.2 mph N1.9 kmh N -- 30.49 in1032.5 mb - 0.00 in0.0 mm 0.00 in0.0 mm
01:50 PM 50.5°F10.3°C 23.1°F-4.9°C 34% Calm Calm -- 30.50 in1032.8 mb - 0.00 in0.0 mm 0.00 in0.0 mm
01:40 PM 50.5°F10.3°C 23.8°F-4.6°C 35% 4.6 mph N7.4 kmh N 8.1 mph13.0 kmh 30.50 in1032.8 mb - 0.00 in0.0 mm 0.00 in0.0 mm
01:30 PM 50.6°F10.3°C 23.2°F-4.9°C 34% Calm Calm -- 30.51 in1033.2 mb - 0.00 in0.0 mm 0.00 in0.0 mm
01:20 PM 50.6°F10.3°C 21.8°F-5.7°C 32% Calm Calm -- 30.51 in1033.2 mb - 0.00 in0.0 mm 0.00 in0.0 mm
01:10 PM 50.6°F10.3°C 22.5°F-5.3°C 33% Calm Calm -- 30.52 in1033.5 mb - 0.00 in0.0 mm 0.00 in0.0 mm
01:00 PM 49.4°F9.7°C 22.8°F-5.1°C 35% Calm Calm -- 30.52 in1033.5 mb - 0.00 in0.0 mm 0.00 in0.0 mm
12:50 PM 49.3°F9.6°C 21.4°F-5.9°C 33% Calm Calm -- 30.53 in1033.9 mb - 0.00 in0.0 mm 0.00 in0.0 mm
12:40 PM 49.0°F9.4°C 21.1°F-6.1°C 33% Calm Calm -- 30.53 in1033.9 mb - 0.00 in0.0 mm 0.00 in0.0 mm
12:30 PM 48.6°F9.2°C 20.8°F-6.2°C 33% Calm Calm -- 30.54 in1034.2 mb - 0.00 in0.0 mm 0.00 in0.0 mm
12:20 PM 48.4°F9.1°C 19.9°F-6.7°C 32% 1.2 mph NE1.9 kmh NE -- 30.54 in1034.2 mb - 0.00 in0.0 mm 0.00 in0.0 mm
12:10 PM 48.9°F9.4°C 21.7°F-5.7°C 34% Calm Calm -- 30.55 in1034.5 mb - 0.00 in0.0 mm 0.00 in0.0 mm
12:00 PM 47.9°F8.8°C 20.2°F-6.6°C 33% Calm Calm -- 30.55 in1034.5 mb - 0.00 in0.0 mm 0.00 in0.0 mm
11:50 AM 47.8°F8.8°C 20.1°F-6.6°C 33% Calm Calm -- 30.56 in1034.9 mb - 0.00 in0.0 mm 0.00 in0.0 mm
11:40 AM 46.5°F8.1°C 19.6°F-6.9°C 34% Calm Calm -- 30.57 in1035.2 mb - 0.00 in0.0 mm 0.00 in0.0 mm
11:30 AM 47.2°F8.4°C 20.2°F-6.6°C 34% Calm Calm -- 30.57 in1035.2 mb - 0.00 in0.0 mm 0.00 in0.0 mm
11:20 AM 47.8°F8.8°C 20.8°F-6.2°C 34% 3.5 mph N5.6 kmh N 3.5 mph5.6 kmh 30.57 in1035.2 mb - 0.00 in0.0 mm 0.00 in0.0 mm
11:10 AM 45.6°F7.6°C 19.5°F-6.9°C 35% Calm Calm -- 30.57 in1035.2 mb - 0.00 in0.0 mm 0.00 in0.0 mm
11:00 AM 45.2°F7.3°C 19.1°F-7.2°C 35% 3.5 mph NE5.6 kmh NE 6.9 mph11.1 kmh 30.57 in1035.2 mb - 0.00 in0.0 mm 0.00 in0.0 mm
10:50 AM 45.1°F7.3°C 19.0°F-7.2°C 35% Calm Calm -- 30.58 in1035.6 mb - 0.00 in0.0 mm 0.00 in0.0 mm
10:40 AM 44.7°F7.1°C 20.0°F-6.7°C 37% Calm Calm -- 30.58 in1035.6 mb - 0.00 in0.0 mm 0.00 in0.0 mm
10:30 AM 44.1°F6.7°C 18.8°F-7.3°C 36% Calm Calm -- 30.58 in1035.6 mb - 0.00 in0.0 mm 0.00 in0.0 mm
10:20 AM 44.1°F6.7°C 19.5°F-6.9°C 37% Calm Calm -- 30.57 in1035.2 mb - 0.00 in0.0 mm 0.00 in0.0 mm
10:10 AM 43.2°F6.2°C 19.2°F-7.1°C 38% Calm Calm -- 30.57 in1035.2 mb - 0.00 in0.0 mm 0.00 in0.0 mm
10:00 AM 43.2°F6.2°C 19.9°F-6.7°C 39% Calm Calm -- 30.57 in1035.2 mb - 0.00 in0.0 mm 0.00 in0.0 mm
09:50 AM 42.1°F5.6°C 20.7°F-6.3°C 42% Calm Calm -- 30.56 in1034.9 mb - 0.00 in0.0 mm 0.00 in0.0 mm
09:40 AM 41.8°F5.4°C 20.4°F-6.4°C 42% Calm Calm -- 30.56 in1034.9 mb - 0.00 in0.0 mm 0.00 in0.0 mm
09:30 AM 40.6°F4.8°C 20.4°F-6.4°C 44% 1.2 mph NE1.9 kmh NE 3.5 mph5.6 kmh 30.56 in1034.9 mb - 0.00 in0.0 mm 0.00 in0.0 mm
09:20 AM 40.3°F4.6°C 21.6°F-5.8°C 47% Calm Calm -- 30.55 in1034.5 mb - 0.00 in0.0 mm 0.00 in0.0 mm
09:10 AM 39.8°F4.3°C 23.1°F-4.9°C 51% Calm Calm -- 30.55 in1034.5 mb - 0.00 in0.0 mm 0.00 in0.0 mm
09:00 AM 38.9°F3.8°C 23.7°F-4.6°C 54% Calm Calm -- 30.55 in1034.5 mb - 0.00 in0.0 mm 0.00 in0.0 mm
08:50 AM 38.2°F3.4°C 23.4°F-4.8°C 55% Calm Calm -- 30.54 in1034.2 mb - 0.00 in0.0 mm 0.00 in0.0 mm
08:40 AM 37.5°F3.1°C 24.1°F-4.4°C 58% Calm Calm -- 30.54 in1034.2 mb - 0.00 in0.0 mm 0.00 in0.0 mm
08:30 AM 35.9°F2.2°C 24.1°F-4.4°C 62% Calm Calm -- 30.53 in1033.9 mb - 0.00 in0.0 mm 0.00 in0.0 mm
08:20 AM 34.8°F1.6°C 24.2°F-4.3°C 65% Calm Calm -- 30.53 in1033.9 mb - 0.00 in0.0 mm 0.00 in0.0 mm
08:10 AM 34.3°F1.3°C 24.1°F-4.4°C 66% Calm Calm -- 30.53 in1033.9 mb - 0.00 in0.0 mm 0.00 in0.0 mm
08:00 AM 33.3°F0.7°C 23.5°F-4.7°C 67% Calm Calm -- 30.53 in1033.9 mb - 0.00 in0.0 mm 0.00 in0.0 mm
07:50 AM 33.4°F0.8°C 23.3°F-4.8°C 66% Calm Calm -- 30.52 in1033.5 mb - 0.00 in0.0 mm 0.00 in0.0 mm
07:40 AM 33.3°F0.7°C 23.2°F-4.9°C 66% Calm Calm -- 30.52 in1033.5 mb - 0.00 in0.0 mm 0.00 in0.0 mm
07:30 AM 33.5°F0.8°C 22.9°F-5.1°C 65% Calm Calm -- 30.52 in1033.5 mb - 0.00 in0.0 mm 0.00 in0.0 mm
07:20 AM 33.7°F0.9°C 23.2°F-4.9°C 65% Calm Calm -- 30.51 in1033.2 mb - 0.00 in0.0 mm 0.00 in0.0 mm
07:10 AM 33.8°F1.0°C 22.9°F-5.1°C 64% Calm Calm -- 30.51 in1033.2 mb - 0.00 in0.0 mm 0.00 in0.0 mm
07:00 AM 34.0°F1.1°C 23.1°F-4.9°C 64% Calm Calm -- 30.51 in1033.2 mb - 0.00 in0.0 mm 0.00 in0.0 mm
06:50 AM 34.2°F1.2°C 22.9°F-5.1°C 63% Calm Calm -- 30.50 in1032.8 mb - 0.00 in0.0 mm 0.00 in0.0 mm
06:40 AM 34.5°F1.4°C 22.8°F-5.1°C 62% Calm Calm -- 30.50 in1032.8 mb - 0.00 in0.0 mm 0.00 in0.0 mm
06:30 AM 34.8°F1.6°C 23.1°F-4.9°C 62% Calm Calm -- 30.49 in1032.5 mb - 0.00 in0.0 mm 0.00 in0.0 mm
06:20 AM 34.9°F1.6°C 22.8°F-5.1°C 61% Calm Calm -- 30.49 in1032.5 mb - 0.00 in0.0 mm 0.00 in0.0 mm
06:10 AM 35.0°F1.7°C 23.3°F-4.8°C 62% Calm Calm -- 30.48 in1032.2 mb - 0.00 in0.0 mm 0.00 in0.0 mm
06:00 AM 35.2°F1.8°C 23.5°F-4.7°C 62% Calm Calm -- 30.47 in1031.8 mb - 0.00 in0.0 mm 0.00 in0.0 mm
05:50 AM 35.2°F1.8°C 23.5°F-4.7°C 62% Calm Calm -- 30.47 in1031.8 mb - 0.00 in0.0 mm 0.00 in0.0 mm
05:40 AM 35.4°F1.9°C 24.0°F-4.4°C 63% Calm Calm -- 30.46 in1031.5 mb - 0.00 in0.0 mm 0.00 in0.0 mm
05:30 AM 35.5°F1.9°C 24.1°F-4.4°C 63% 4.6 mph NNE7.4 kmh NNE 6.9 mph11.1 kmh 30.46 in1031.5 mb - 0.00 in0.0 mm 0.00 in0.0 mm
05:20 AM 35.6°F2.0°C 24.2°F-4.3°C 63% Calm Calm -- 30.46 in1031.5 mb - 0.00 in0.0 mm 0.00 in0.0 mm
05:10 AM 35.7°F2.1°C 24.3°F-4.3°C 63% 1.2 mph NNE1.9 kmh NNE 4.6 mph7.4 kmh 30.46 in1031.5 mb - 0.00 in0.0 mm 0.00 in0.0 mm
05:00 AM 35.6°F2.0°C 24.6°F-4.1°C 64% Calm Calm -- 30.47 in1031.8 mb - 0.00 in0.0 mm 0.00 in0.0 mm
04:50 AM 35.7°F2.1°C 24.7°F-4.1°C 64% Calm Calm -- 30.46 in1031.5 mb - 0.00 in0.0 mm 0.00 in0.0 mm
04:40 AM 35.7°F2.1°C 24.7°F-4.1°C 64% Calm Calm -- 30.46 in1031.5 mb - 0.00 in0.0 mm 0.00 in0.0 mm
04:30 AM 35.8°F2.1°C 24.8°F-4.0°C 64% Calm Calm -- 30.46 in1031.5 mb - 0.00 in0.0 mm 0.00 in0.0 mm
04:20 AM 35.8°F2.1°C 24.8°F-4.0°C 64% Calm Calm -- 30.46 in1031.5 mb - 0.00 in0.0 mm 0.00 in0.0 mm
04:10 AM 36.0°F2.2°C 25.0°F-3.9°C 64% Calm Calm -- 30.46 in1031.5 mb - 0.00 in0.0 mm 0.00 in0.0 mm
04:00 AM 36.2°F2.3°C 25.2°F-3.8°C 64% Calm Calm -- 30.46 in1031.5 mb - 0.00 in0.0 mm 0.00 in0.0 mm
03:50 AM 36.4°F2.4°C 25.0°F-3.9°C 63% Calm Calm -- 30.46 in1031.5 mb - 0.00 in0.0 mm 0.00 in0.0 mm
03:40 AM 36.5°F2.5°C 25.1°F-3.8°C 63% 3.5 mph N5.6 kmh N 4.6 mph7.4 kmh 30.46 in1031.5 mb - 0.00 in0.0 mm 0.00 in0.0 mm
03:30 AM 36.6°F2.6°C 25.2°F-3.8°C 63% Calm Calm -- 30.46 in1031.5 mb - 0.00 in0.0 mm 0.00 in0.0 mm
03:20 AM 36.7°F2.6°C 25.3°F-3.7°C 63% Calm Calm -- 30.46 in1031.5 mb - 0.00 in0.0 mm 0.00 in0.0 mm
03:10 AM 36.8°F2.7°C 25.0°F-3.9°C 62% 1.2 mph N1.9 kmh N -- 30.46 in1031.5 mb - 0.00 in0.0 mm 0.00 in0.0 mm
03:00 AM 36.8°F2.7°C 25.0°F-3.9°C 62% 1.2 mph N1.9 kmh N 5.8 mph9.3 kmh 30.46 in1031.5 mb - 0.00 in0.0 mm 0.00 in0.0 mm
02:50 AM 36.8°F2.7°C 25.4°F-3.7°C 63% Calm Calm -- 30.46 in1031.5 mb - 0.00 in0.0 mm 0.00 in0.0 mm
02:40 AM 36.7°F2.6°C 25.3°F-3.7°C 63% Calm Calm -- 30.46 in1031.5 mb - 0.00 in0.0 mm 0.00 in0.0 mm
02:30 AM 36.7°F2.6°C 25.7°F-3.5°C 64% Calm Calm -- 30.45 in1031.2 mb - 0.00 in0.0 mm 0.00 in0.0 mm
02:20 AM 36.8°F2.7°C 25.8°F-3.4°C 64% Calm Calm -- 30.46 in1031.5 mb - 0.00 in0.0 mm 0.00 in0.0 mm
02:10 AM 37.2°F2.9°C 25.8°F-3.4°C 63% Calm Calm -- 30.46 in1031.5 mb - 0.00 in0.0 mm 0.00 in0.0 mm
02:00 AM 37.6°F3.1°C 25.7°F-3.5°C 62% Calm Calm -- 30.45 in1031.2 mb - 0.00 in0.0 mm 0.00 in0.0 mm
01:50 AM 38.0°F3.3°C 25.7°F-3.5°C 61% Calm Calm -- 30.45 in1031.2 mb - 0.00 in0.0 mm 0.00 in0.0 mm
01:40 AM 38.2°F3.4°C 25.5°F-3.6°C 60% Calm Calm -- 30.45 in1031.2 mb - 0.00 in0.0 mm 0.00 in0.0 mm
01:30 AM 38.6°F3.7°C 25.5°F-3.6°C 59% Calm Calm -- 30.45 in1031.2 mb - 0.00 in0.0 mm 0.00 in0.0 mm
01:20 AM 38.8°F3.8°C 25.3°F-3.7°C 58% Calm Calm -- 30.44 in1030.8 mb - 0.00 in0.0 mm 0.00 in0.0 mm
01:10 AM 39.1°F3.9°C 25.1°F-3.8°C 57% Calm Calm -- 30.45 in1031.2 mb - 0.00 in0.0 mm 0.00 in0.0 mm
01:00 AM 39.3°F4.1°C 25.3°F-3.7°C 57% Calm Calm -- 30.45 in1031.2 mb - 0.00 in0.0 mm 0.00 in0.0 mm
12:50 AM 39.5°F4.2°C 25.1°F-3.8°C 56% Calm Calm -- 30.45 in1031.2 mb - 0.00 in0.0 mm 0.00 in0.0 mm
12:40 AM 39.9°F4.4°C 25.0°F-3.9°C 55% Calm Calm -- 30.45 in1031.2 mb - 0.00 in0.0 mm 0.00 in0.0 mm
12:30 AM 40.2°F4.6°C 24.9°F-3.9°C 54% 4.6 mph NNE7.4 kmh NNE 6.9 mph11.1 kmh 30.44 in1030.8 mb - 0.00 in0.0 mm 0.00 in0.0 mm
12:20 AM 40.4°F4.7°C 25.1°F-3.8°C 54% Calm Calm -- 30.44 in1030.8 mb - 0.00 in0.0 mm 0.00 in0.0 mm
12:10 AM 40.5°F4.7°C 25.1°F-3.8°C 54% 4.6 mph NNE7.4 kmh NNE 6.9 mph11.1 kmh 30.45 in1031.2 mb - 0.00 in0.0 mm 0.00 in0.0 mm
12:00 AM 40.4°F4.7°C 25.5°F-3.6°C 55% 1.2 mph NNE1.9 kmh NNE -- 30.44 in1030.8 mb - 0.00 in0.0 mm 0.00 in0.0 mm